sensor_id;sensor_type;location;lat;lon;timestamp;temperature;humidity
75782;DHT22;64400;44.762;37.698;2023-04-03T00:00:48;10.57;98.59
75782;DHT22;64400;44.762;37.698;2023-04-03T00:03:24;10.59;98.63
75782;DHT22;64400;44.762;37.698;2023-04-03T00:05:52;10.59;98.53
75782;DHT22;64400;44.762;37.698;2023-04-03T00:08:26;10.59;98.64
75782;DHT22;64400;44.762;37.698;2023-04-03T00:10:54;10.59;98.74
75782;DHT22;64400;44.762;37.698;2023-04-03T00:13:29;10.59;98.81
75782;DHT22;64400;44.762;37.698;2023-04-03T00:15:57;10.59;98.91
75782;DHT22;64400;44.762;37.698;2023-04-03T00:18:31;10.57;99.15
75782;DHT22;64400;44.762;37.698;2023-04-03T00:20:59;10.57;99.14
75782;DHT22;64400;44.762;37.698;2023-04-03T00:23:34;10.56;99.29
75782;DHT22;64400;44.762;37.698;2023-04-03T00:26:02;10.52;99.60
75782;DHT22;64400;44.762;37.698;2023-04-03T00:28:36;10.52;99.65
75782;DHT22;64400;44.762;37.698;2023-04-03T00:31:04;10.51;99.69
75782;DHT22;64400;44.762;37.698;2023-04-03T00:33:38;10.52;99.82
75782;DHT22;64400;44.762;37.698;2023-04-03T00:36:08;10.46;100.17
75782;DHT22;64400;44.762;37.698;2023-04-03T00:38:44;10.49;100.24
75782;DHT22;64400;44.762;37.698;2023-04-03T00:41:13;10.49;100.38
75782;DHT22;64400;44.762;37.698;2023-04-03T00:43:47;10.49;100.35
75782;DHT22;64400;44.762;37.698;2023-04-03T00:46:15;10.51;100.31
75782;DHT22;64400;44.762;37.698;2023-04-03T00:48:50;10.54;100.19
75782;DHT22;64400;44.762;37.698;2023-04-03T00:51:25;10.56;100.06
75782;DHT22;64400;44.762;37.698;2023-04-03T00:53:58;10.56;100.13
75782;DHT22;64400;44.762;37.698;2023-04-03T00:56:28;10.56;100.09
75782;DHT22;64400;44.762;37.698;2023-04-03T00:59:08;10.56;100.22
75782;DHT22;64400;44.762;37.698;2023-04-03T01:01:38;10.59;99.80
75782;DHT22;64400;44.762;37.698;2023-04-03T01:06:57;10.55;99.26
75782;DHT22;64400;44.762;37.698;2023-04-03T01:09:26;10.56;99.04
75782;DHT22;64400;44.762;37.698;2023-04-03T01:12:20;10.57;99.24
75782;DHT22;64400;44.762;37.698;2023-04-03T01:14:54;10.59;99.13
75782;DHT22;64400;44.762;37.698;2023-04-03T01:25:41;10.79;99.01
75782;DHT22;64400;44.762;37.698;2023-04-03T01:28:13;10.82;98.95
75782;DHT22;64400;44.762;37.698;2023-04-03T01:33:39;10.78;99.59
75782;DHT22;64400;44.762;37.698;2023-04-03T01:36:08;10.77;99.87
75782;DHT22;64400;44.762;37.698;2023-04-03T01:38:42;10.77;100.01
75782;DHT22;64400;44.762;37.698;2023-04-03T01:41:10;10.77;100.06
75782;DHT22;64400;44.762;37.698;2023-04-03T01:43:45;10.81;100.02
75782;DHT22;64400;44.762;37.698;2023-04-03T01:46:15;10.79;100.24
75782;DHT22;64400;44.762;37.698;2023-04-03T01:48:49;10.78;100.58
75782;DHT22;64400;44.762;37.698;2023-04-03T01:51:17;10.75;100.68
75782;DHT22;64400;44.762;37.698;2023-04-03T01:53:51;10.74;100.90
75782;DHT22;64400;44.762;37.698;2023-04-03T01:56:20;10.75;101.09
75782;DHT22;64400;44.762;37.698;2023-04-03T01:58:55;10.74;101.12
75782;DHT22;64400;44.762;37.698;2023-04-03T02:01:24;10.78;100.96
75782;DHT22;64400;44.762;37.698;2023-04-03T02:04:00;10.82;100.67
75782;DHT22;64400;44.762;37.698;2023-04-03T02:06:29;10.77;101.18
75782;DHT22;64400;44.762;37.698;2023-04-03T02:09:03;10.82;100.93
75782;DHT22;64400;44.762;37.698;2023-04-03T02:11:31;10.75;101.20
75782;DHT22;64400;44.762;37.698;2023-04-03T02:14:06;10.72;102.03
75782;DHT22;64400;44.762;37.698;2023-04-03T02:16:55;10.68;102.41
75782;DHT22;64400;44.762;37.698;2023-04-03T02:19:23;10.68;102.67
75782;DHT22;64400;44.762;37.698;2023-04-03T02:21:57;10.66;102.87
75782;DHT22;64400;44.762;37.698;2023-04-03T02:24:25;10.66;103.25
75782;DHT22;64400;44.762;37.698;2023-04-03T02:27:00;10.72;103.07
75782;DHT22;64400;44.762;37.698;2023-04-03T02:29:28;10.73;103.17
75782;DHT22;64400;44.762;37.698;2023-04-03T02:32:03;10.73;103.25
75782;DHT22;64400;44.762;37.698;2023-04-03T02:34:32;10.71;103.17
75782;DHT22;64400;44.762;37.698;2023-04-03T02:37:07;10.70;103.25
75782;DHT22;64400;44.762;37.698;2023-04-03T02:39:36;10.70;103.33
75782;DHT22;64400;44.762;37.698;2023-04-03T02:42:10;10.69;103.51
75782;DHT22;64400;44.762;37.698;2023-04-03T02:44:39;10.72;103.62
75782;DHT22;64400;44.762;37.698;2023-04-03T02:47:09;10.72;103.53
75782;DHT22;64400;44.762;37.698;2023-04-03T02:49:37;10.72;103.56
75782;DHT22;64400;44.762;37.698;2023-04-03T02:52:15;10.73;103.66
75782;DHT22;64400;44.762;37.698;2023-04-03T02:54:43;10.73;103.79
75782;DHT22;64400;44.762;37.698;2023-04-03T02:57:12;10.74;103.69
75782;DHT22;64400;44.762;37.698;2023-04-03T02:59:42;10.74;103.50
75782;DHT22;64400;44.762;37.698;2023-04-03T03:02:12;10.75;103.32
75782;DHT22;64400;44.762;37.698;2023-04-03T03:04:46;10.75;103.57
75782;DHT22;64400;44.762;37.698;2023-04-03T03:07:14;10.73;103.96
75782;DHT22;64400;44.762;37.698;2023-04-03T03:09:49;10.73;103.98
75782;DHT22;64400;44.762;37.698;2023-04-03T03:12:17;10.75;103.86
75782;DHT22;64400;44.762;37.698;2023-04-03T03:14:49;10.72;103.75
75782;DHT22;64400;44.762;37.698;2023-04-03T03:17:18;10.74;103.68
75782;DHT22;64400;44.762;37.698;2023-04-03T03:19:52;10.75;103.40
75782;DHT22;64400;44.762;37.698;2023-04-03T03:22:20;10.80;102.41
75782;DHT22;64400;44.762;37.698;2023-04-03T03:24:55;10.83;102.00
75782;DHT22;64400;44.762;37.698;2023-04-03T03:27:23;10.84;101.53
75782;DHT22;64400;44.762;37.698;2023-04-03T03:29:58;10.87;101.70
75782;DHT22;64400;44.762;37.698;2023-04-03T03:32:26;10.87;101.87
75782;DHT22;64400;44.762;37.698;2023-04-03T03:35:01;10.85;102.33
75782;DHT22;64400;44.762;37.698;2023-04-03T03:37:30;10.82;102.42
75782;DHT22;64400;44.762;37.698;2023-04-03T03:40:05;10.85;102.63
75782;DHT22;64400;44.762;37.698;2023-04-03T03:42:34;10.85;101.66
75782;DHT22;64400;44.762;37.698;2023-04-03T03:45:11;10.85;102.31
75782;DHT22;64400;44.762;37.698;2023-04-03T03:47:41;10.85;102.40
75782;DHT22;64400;44.762;37.698;2023-04-03T03:50:16;10.86;102.15
75782;DHT22;64400;44.762;37.698;2023-04-03T03:52:44;10.85;102.09
75782;DHT22;64400;44.762;37.698;2023-04-03T03:55:19;10.88;101.87
75782;DHT22;64400;44.762;37.698;2023-04-03T03:57:52;10.89;101.94
75782;DHT22;64400;44.762;37.698;2023-04-03T04:00:21;10.89;101.22
75782;DHT22;64400;44.762;37.698;2023-04-03T04:02:54;10.90;101.24
75782;DHT22;64400;44.762;37.698;2023-04-03T04:05:26;10.90;101.57
75782;DHT22;64400;44.762;37.698;2023-04-03T04:07:54;10.89;101.46
75782;DHT22;64400;44.762;37.698;2023-04-03T04:14:59;10.89;101.44
75782;DHT22;64400;44.762;37.698;2023-04-03T04:51:32;10.95;100.19
75782;DHT22;64400;44.762;37.698;2023-04-03T04:54:13;10.94;99.80
75782;DHT22;64400;44.762;37.698;2023-04-03T04:56:41;10.96;100.40
75782;DHT22;64400;44.762;37.698;2023-04-03T04:59:09;10.97;100.08
75782;DHT22;64400;44.762;37.698;2023-04-03T05:01:37;10.93;100.94
75782;DHT22;64400;44.762;37.698;2023-04-03T05:04:13;10.95;100.35
75782;DHT22;64400;44.762;37.698;2023-04-03T05:06:45;10.98;99.92
75782;DHT22;64400;44.762;37.698;2023-04-03T05:09:17;10.96;99.85
75782;DHT22;64400;44.762;37.698;2023-04-03T05:11:48;10.90;100.23
75782;DHT22;64400;44.762;37.698;2023-04-03T05:14:18;10.88;100.69
75782;DHT22;64400;44.762;37.698;2023-04-03T05:16:47;10.88;100.34
75782;DHT22;64400;44.762;37.698;2023-04-03T05:19:18;10.95;100.71
75782;DHT22;64400;44.762;37.698;2023-04-03T05:21:46;10.97;101.04
75782;DHT22;64400;44.762;37.698;2023-04-03T05:24:16;10.98;101.29
75782;DHT22;64400;44.762;37.698;2023-04-03T05:26:44;10.98;99.20
75782;DHT22;64400;44.762;37.698;2023-04-03T05:29:15;10.98;98.52
75782;DHT22;64400;44.762;37.698;2023-04-03T05:31:43;11.07;98.89
75782;DHT22;64400;44.762;37.698;2023-04-03T05:34:12;11.16;99.37
75782;DHT22;64400;44.762;37.698;2023-04-03T05:36:41;11.26;98.74
75782;DHT22;64400;44.762;37.698;2023-04-03T05:39:10;11.30;97.30
75782;DHT22;64400;44.762;37.698;2023-04-03T05:41:42;11.40;97.77
75782;DHT22;64400;44.762;37.698;2023-04-03T05:44:10;11.36;97.52
75782;DHT22;64400;44.762;37.698;2023-04-03T05:46:40;11.32;96.49
75782;DHT22;64400;44.762;37.698;2023-04-03T05:49:10;11.44;96.50
75782;DHT22;64400;44.762;37.698;2023-04-03T05:56:13;11.98;95.00
75782;DHT22;64400;44.762;37.698;2023-04-03T05:58:41;12.17;94.52
75782;DHT22;64400;44.762;37.698;2023-04-03T06:01:15;12.35;95.30
75782;DHT22;64400;44.762;37.698;2023-04-03T06:03:44;12.31;94.07
75782;DHT22;64400;44.762;37.698;2023-04-03T06:06:18;12.20;93.30
75782;DHT22;64400;44.762;37.698;2023-04-03T06:08:47;12.29;92.39
75782;DHT22;64400;44.762;37.698;2023-04-03T06:11:21;12.36;92.18
75782;DHT22;64400;44.762;37.698;2023-04-03T06:13:50;12.33;92.32
75782;DHT22;64400;44.762;37.698;2023-04-03T06:16:25;12.22;91.64
75782;DHT22;64400;44.762;37.698;2023-04-03T06:18:53;12.76;91.68
75782;DHT22;64400;44.762;37.698;2023-04-03T06:21:28;13.20;89.86
75782;DHT22;64400;44.762;37.698;2023-04-03T06:23:57;13.58;88.68
75782;DHT22;64400;44.762;37.698;2023-04-03T06:26:32;13.79;86.19
75782;DHT22;64400;44.762;37.698;2023-04-03T06:29:00;14.12;85.82
75782;DHT22;64400;44.762;37.698;2023-04-03T06:31:35;14.54;83.59
75782;DHT22;64400;44.762;37.698;2023-04-03T06:34:07;14.69;84.76
75782;DHT22;64400;44.762;37.698;2023-04-03T06:36:36;14.77;83.66
75782;DHT22;64400;44.762;37.698;2023-04-03T06:39:14;14.84;83.32
75782;DHT22;64400;44.762;37.698;2023-04-03T06:41:43;14.95;83.17
75782;DHT22;64400;44.762;37.698;2023-04-03T06:44:11;15.44;80.52
75782;DHT22;64400;44.762;37.698;2023-04-03T06:46:40;15.06;81.16
75782;DHT22;64400;44.762;37.698;2023-04-03T06:49:09;15.13;82.87
75782;DHT22;64400;44.762;37.698;2023-04-03T06:51:43;15.29;82.14
75782;DHT22;64400;44.762;37.698;2023-04-03T06:54:12;15.33;79.85
75782;DHT22;64400;44.762;37.698;2023-04-03T06:56:46;15.29;79.38
75782;DHT22;64400;44.762;37.698;2023-04-03T06:59:14;15.02;80.76
75782;DHT22;64400;44.762;37.698;2023-04-03T07:01:49;14.97;80.28
75782;DHT22;64400;44.762;37.698;2023-04-03T07:04:17;15.13;79.57
75782;DHT22;64400;44.762;37.698;2023-04-03T07:06:48;14.89;81.78
75782;DHT22;64400;44.762;37.698;2023-04-03T07:09:16;15.00;79.72
75782;DHT22;64400;44.762;37.698;2023-04-03T07:11:50;14.91;81.67
75782;DHT22;64400;44.762;37.698;2023-04-03T07:14:18;14.78;81.70
75782;DHT22;64400;44.762;37.698;2023-04-03T07:16:52;14.18;83.68
75782;DHT22;64400;44.762;37.698;2023-04-03T07:19:20;13.92;84.39
75782;DHT22;64400;44.762;37.698;2023-04-03T07:21:55;13.69;84.23
75782;DHT22;64400;44.762;37.698;2023-04-03T07:24:26;13.56;84.89
75782;DHT22;64400;44.762;37.698;2023-04-03T07:26:53;13.77;84.42
75782;DHT22;64400;44.762;37.698;2023-04-03T07:29:27;14.47;81.92
75782;DHT22;64400;44.762;37.698;2023-04-03T07:31:56;14.64;81.12
75782;DHT22;64400;44.762;37.698;2023-04-03T07:34:31;14.28;83.29
75782;DHT22;64400;44.762;37.698;2023-04-03T07:36:59;14.48;82.07
75782;DHT22;64400;44.762;37.698;2023-04-03T07:39:34;14.30;83.25
75782;DHT22;64400;44.762;37.698;2023-04-03T07:42:02;14.32;83.70
75782;DHT22;64400;44.762;37.698;2023-04-03T07:44:37;14.68;81.90
75782;DHT22;64400;44.762;37.698;2023-04-03T07:47:05;15.10;80.32
75782;DHT22;64400;44.762;37.698;2023-04-03T07:49:39;15.03;80.33
75782;DHT22;64400;44.762;37.698;2023-04-03T07:52:08;14.97;81.69
75782;DHT22;64400;44.762;37.698;2023-04-03T07:54:37;14.91;80.81
75782;DHT22;64400;44.762;37.698;2023-04-03T07:57:04;15.10;80.95
75782;DHT22;64400;44.762;37.698;2023-04-03T07:59:33;14.73;81.85
75782;DHT22;64400;44.762;37.698;2023-04-03T08:02:09;14.94;81.97
75782;DHT22;64400;44.762;37.698;2023-04-03T08:04:38;15.12;80.98
75782;DHT22;64400;44.762;37.698;2023-04-03T08:07:07;15.25;80.88
75782;DHT22;64400;44.762;37.698;2023-04-03T08:09:41;14.86;83.50
75782;DHT22;64400;44.762;37.698;2023-04-03T08:12:09;15.17;80.01
75782;DHT22;64400;44.762;37.698;2023-04-03T08:14:38;15.28;80.30
75782;DHT22;64400;44.762;37.698;2023-04-03T08:17:08;15.03;81.08
75782;DHT22;64400;44.762;37.698;2023-04-03T08:19:39;14.87;82.25
75782;DHT22;64400;44.762;37.698;2023-04-03T08:22:10;15.21;79.49
75782;DHT22;64400;44.762;37.698;2023-04-03T08:24:38;15.25;78.69
75782;DHT22;64400;44.762;37.698;2023-04-03T08:27:19;15.08;77.81
75782;DHT22;64400;44.762;37.698;2023-04-03T08:29:47;15.17;79.87
75782;DHT22;64400;44.762;37.698;2023-04-03T08:32:15;15.18;79.73
75782;DHT22;64400;44.762;37.698;2023-04-03T08:34:43;15.16;79.16
75782;DHT22;64400;44.762;37.698;2023-04-03T08:37:11;14.81;80.30
75782;DHT22;64400;44.762;37.698;2023-04-03T08:39:38;14.70;81.19
75782;DHT22;64400;44.762;37.698;2023-04-03T08:42:35;14.37;81.79
75782;DHT22;64400;44.762;37.698;2023-04-03T08:45:06;13.84;83.84
75782;DHT22;64400;44.762;37.698;2023-04-03T08:48:07;13.65;85.24
75782;DHT22;64400;44.762;37.698;2023-04-03T08:50:44;14.01;83.00
75782;DHT22;64400;44.762;37.698;2023-04-03T08:53:22;13.56;85.59
75782;DHT22;64400;44.762;37.698;2023-04-03T08:55:53;13.43;86.29
75782;DHT22;64400;44.762;37.698;2023-04-03T08:58:26;13.66;85.67
75782;DHT22;64400;44.762;37.698;2023-04-03T09:01:00;13.79;86.74
75782;DHT22;64400;44.762;37.698;2023-04-03T09:03:35;14.05;86.70
75782;DHT22;64400;44.762;37.698;2023-04-03T09:06:08;14.47;81.76
75782;DHT22;64400;44.762;37.698;2023-04-03T09:11:25;14.03;86.92
75782;DHT22;64400;44.762;37.698;2023-04-03T09:14:45;13.73;87.86
75782;DHT22;64400;44.762;37.698;2023-04-03T09:17:20;13.71;88.19
75782;DHT22;64400;44.762;37.698;2023-04-03T09:20:42;14.38;86.69
75782;DHT22;64400;44.762;37.698;2023-04-03T09:22:53;14.13;85.96
75782;DHT22;64400;44.762;37.698;2023-04-03T09:25:22;13.94;88.43
75782;DHT22;64400;44.762;37.698;2023-04-03T09:27:51;13.69;89.58
75782;DHT22;64400;44.762;37.698;2023-04-03T09:30:22;13.20;90.78
75782;DHT22;64400;44.762;37.698;2023-04-03T09:32:53;13.05;91.47
75782;DHT22;64400;44.762;37.698;2023-04-03T09:35:30;13.52;90.21
75782;DHT22;64400;44.762;37.698;2023-04-03T09:38:15;13.68;89.07
75782;DHT22;64400;44.762;37.698;2023-04-03T09:41:04;13.73;88.25
75782;DHT22;64400;44.762;37.698;2023-04-03T09:43:34;13.66;87.76
75782;DHT22;64400;44.762;37.698;2023-04-03T09:46:32;13.58;88.80
75782;DHT22;64400;44.762;37.698;2023-04-03T09:49:04;13.26;90.50
75782;DHT22;64400;44.762;37.698;2023-04-03T09:51:36;13.10;90.91
75782;DHT22;64400;44.762;37.698;2023-04-03T09:57:07;13.10;91.64
75782;DHT22;64400;44.762;37.698;2023-04-03T09:59:37;13.31;90.80
75782;DHT22;64400;44.762;37.698;2023-04-03T10:04:39;13.27;90.41
75782;DHT22;64400;44.762;37.698;2023-04-03T10:07:29;13.22;87.76
75782;DHT22;64400;44.762;37.698;2023-04-03T10:10:18;13.73;89.18
75782;DHT22;64400;44.762;37.698;2023-04-03T10:12:47;13.79;87.60
75782;DHT22;64400;44.762;37.698;2023-04-03T10:15:17;13.86;87.31
75782;DHT22;64400;44.762;37.698;2023-04-03T10:18:02;13.70;87.91
75782;DHT22;64400;44.762;37.698;2023-04-03T10:20:50;13.70;87.57
75782;DHT22;64400;44.762;37.698;2023-04-03T10:24:03;13.20;88.06
75782;DHT22;64400;44.762;37.698;2023-04-03T10:34:43;13.66;87.77
75782;DHT22;64400;44.762;37.698;2023-04-03T10:37:30;13.53;87.86
75782;DHT22;64400;44.762;37.698;2023-04-03T10:48:19;13.01;90.44
75782;DHT22;64400;44.762;37.698;2023-04-03T10:54:35;13.05;89.54
75782;DHT22;64400;44.762;37.698;2023-04-03T10:57:09;12.94;88.47
75782;DHT22;64400;44.762;37.698;2023-04-03T10:59:56;12.71;90.06
75782;DHT22;64400;44.762;37.698;2023-04-03T11:02:32;12.77;89.45
75782;DHT22;64400;44.762;37.698;2023-04-03T11:05:49;12.88;88.46
75782;DHT22;64400;44.762;37.698;2023-04-03T11:08:11;12.73;89.36
75782;DHT22;64400;44.762;37.698;2023-04-03T11:10:49;12.74;89.32
75782;DHT22;64400;44.762;37.698;2023-04-03T11:13:26;12.91;89.29
75782;DHT22;64400;44.762;37.698;2023-04-03T11:15:56;12.89;89.24
75782;DHT22;64400;44.762;37.698;2023-04-03T11:21:04;12.45;91.24
75782;DHT22;64400;44.762;37.698;2023-04-03T11:23:36;12.38;90.66
75782;DHT22;64400;44.762;37.698;2023-04-03T11:26:22;12.35;91.69
75782;DHT22;64400;44.762;37.698;2023-04-03T11:29:08;12.26;92.10
75782;DHT22;64400;44.762;37.698;2023-04-03T11:34:42;12.32;92.05
75782;DHT22;64400;44.762;37.698;2023-04-03T11:42:52;12.56;90.98
75782;DHT22;64400;44.762;37.698;2023-04-03T11:48:42;12.41;91.56
75782;DHT22;64400;44.762;37.698;2023-04-03T11:50:51;12.38;91.84
75782;DHT22;64400;44.762;37.698;2023-04-03T11:53:36;12.45;90.91
75782;DHT22;64400;44.762;37.698;2023-04-03T11:58:34;12.36;90.73
75782;DHT22;64400;44.762;37.698;2023-04-03T12:01:07;12.49;91.29
75782;DHT22;64400;44.762;37.698;2023-04-03T12:11:30;12.70;91.21
75782;DHT22;64400;44.762;37.698;2023-04-03T12:19:34;12.42;91.83
75782;DHT22;64400;44.762;37.698;2023-04-03T12:22:08;12.45;92.26
75782;DHT22;64400;44.762;37.698;2023-04-03T12:24:39;12.52;91.67
75782;DHT22;64400;44.762;37.698;2023-04-03T12:27:29;12.41;92.08
75782;DHT22;64400;44.762;37.698;2023-04-03T12:32:43;12.40;92.00
75782;DHT22;64400;44.762;37.698;2023-04-03T12:38:15;12.50;91.86
75782;DHT22;64400;44.762;37.698;2023-04-03T12:41:15;12.52;91.62
75782;DHT22;64400;44.762;37.698;2023-04-03T12:46:48;12.49;93.85
75782;DHT22;64400;44.762;37.698;2023-04-03T12:49:26;12.43;93.44
75782;DHT22;64400;44.762;37.698;2023-04-03T12:51:59;12.31;94.78
75782;DHT22;64400;44.762;37.698;2023-04-03T12:54:35;12.19;94.82
75782;DHT22;64400;44.762;37.698;2023-04-03T12:59:44;12.27;95.43
75782;DHT22;64400;44.762;37.698;2023-04-03T13:02:23;12.19;94.99
75782;DHT22;64400;44.762;37.698;2023-04-03T13:04:53;12.22;95.17
75782;DHT22;64400;44.762;37.698;2023-04-03T13:07:42;12.20;95.49
75782;DHT22;64400;44.762;37.698;2023-04-03T13:10:17;12.12;96.56
75782;DHT22;64400;44.762;37.698;2023-04-03T13:12:47;12.19;96.26
75782;DHT22;64400;44.762;37.698;2023-04-03T13:15:23;12.25;94.62
75782;DHT22;64400;44.762;37.698;2023-04-03T13:17:53;12.16;96.19
75782;DHT22;64400;44.762;37.698;2023-04-03T13:23:08;11.88;96.63
75782;DHT22;64400;44.762;37.698;2023-04-03T13:25:41;11.91;97.15
75782;DHT22;64400;44.762;37.698;2023-04-03T13:28:12;11.97;96.79
75782;DHT22;64400;44.762;37.698;2023-04-03T13:30:49;11.96;97.32
75782;DHT22;64400;44.762;37.698;2023-04-03T13:33:26;12.00;97.30
75782;DHT22;64400;44.762;37.698;2023-04-03T13:36:01;11.89;97.92
75782;DHT22;64400;44.762;37.698;2023-04-03T13:38:31;11.86;97.94
75782;DHT22;64400;44.762;37.698;2023-04-03T13:41:05;11.85;98.19
75782;DHT22;64400;44.762;37.698;2023-04-03T13:43:35;11.77;98.54
75782;DHT22;64400;44.762;37.698;2023-04-03T13:46:23;11.69;98.41
75782;DHT22;64400;44.762;37.698;2023-04-03T13:48:54;11.59;98.81
75782;DHT22;64400;44.762;37.698;2023-04-03T13:51:29;11.58;99.37
75782;DHT22;64400;44.762;37.698;2023-04-03T13:54:10;11.63;99.13
75782;DHT22;64400;44.762;37.698;2023-04-03T13:56:41;11.58;100.06
75782;DHT22;64400;44.762;37.698;2023-04-03T14:07:04;11.69;98.97
75782;DHT22;64400;44.762;37.698;2023-04-03T14:09:32;11.61;99.48
75782;DHT22;64400;44.762;37.698;2023-04-03T14:12:08;11.61;99.16
75782;DHT22;64400;44.762;37.698;2023-04-03T14:14:51;11.63;98.80
75782;DHT22;64400;44.762;37.698;2023-04-03T14:17:21;11.56;99.03
75782;DHT22;64400;44.762;37.698;2023-04-03T14:19:53;11.56;99.22
75782;DHT22;64400;44.762;37.698;2023-04-03T14:22:26;11.54;100.01
75782;DHT22;64400;44.762;37.698;2023-04-03T14:24:54;11.46;100.43
75782;DHT22;64400;44.762;37.698;2023-04-03T14:27:29;11.36;101.42
75782;DHT22;64400;44.762;37.698;2023-04-03T14:29:58;11.40;101.66
75782;DHT22;64400;44.762;37.698;2023-04-03T14:32:27;11.29;101.51
75782;DHT22;64400;44.762;37.698;2023-04-03T14:34:55;11.28;101.04
75782;DHT22;64400;44.762;37.698;2023-04-03T14:37:28;11.29;101.03
75782;DHT22;64400;44.762;37.698;2023-04-03T14:39:59;11.27;101.07
75782;DHT22;64400;44.762;37.698;2023-04-03T14:42:31;11.30;100.84
75782;DHT22;64400;44.762;37.698;2023-04-03T14:45:03;11.30;100.58
75782;DHT22;64400;44.762;37.698;2023-04-03T14:47:31;11.26;100.62
75782;DHT22;64400;44.762;37.698;2023-04-03T14:50:01;11.25;100.99
75782;DHT22;64400;44.762;37.698;2023-04-03T14:52:34;11.22;101.50
75782;DHT22;64400;44.762;37.698;2023-04-03T14:55:05;11.26;101.40
75782;DHT22;64400;44.762;37.698;2023-04-03T14:57:33;11.31;101.44
75782;DHT22;64400;44.762;37.698;2023-04-03T15:00:03;11.38;100.93
75782;DHT22;64400;44.762;37.698;2023-04-03T15:02:36;11.43;100.98
75782;DHT22;64400;44.762;37.698;2023-04-03T15:05:07;11.46;101.03
75782;DHT22;64400;44.762;37.698;2023-04-03T15:07:42;11.44;101.48
75782;DHT22;64400;44.762;37.698;2023-04-03T15:10:25;11.37;101.46
75782;DHT22;64400;44.762;37.698;2023-04-03T15:12:53;11.34;101.41
75782;DHT22;64400;44.762;37.698;2023-04-03T15:15:23;11.32;101.33
75782;DHT22;64400;44.762;37.698;2023-04-03T15:17:53;11.33;101.32
75782;DHT22;64400;44.762;37.698;2023-04-03T15:20:25;11.31;101.38
75782;DHT22;64400;44.762;37.698;2023-04-03T15:22:54;11.28;101.60
75782;DHT22;64400;44.762;37.698;2023-04-03T15:25:24;11.26;101.48
75782;DHT22;64400;44.762;37.698;2023-04-03T15:27:54;11.27;101.80
75782;DHT22;64400;44.762;37.698;2023-04-03T15:30:22;11.29;101.83
75782;DHT22;64400;44.762;37.698;2023-04-03T15:32:50;11.28;101.99
75782;DHT22;64400;44.762;37.698;2023-04-03T15:35:18;11.25;102.51
75782;DHT22;64400;44.762;37.698;2023-04-03T15:37:46;11.25;102.39
75782;DHT22;64400;44.762;37.698;2023-04-03T15:40:15;11.26;102.51
75782;DHT22;64400;44.762;37.698;2023-04-03T15:42:43;11.27;102.59
75782;DHT22;64400;44.762;37.698;2023-04-03T15:45:11;11.28;102.39
75782;DHT22;64400;44.762;37.698;2023-04-03T15:47:39;11.24;102.67
75782;DHT22;64400;44.762;37.698;2023-04-03T15:50:07;11.20;102.57
75782;DHT22;64400;44.762;37.698;2023-04-03T15:52:36;11.22;103.05
75782;DHT22;64400;44.762;37.698;2023-04-03T15:55:04;11.25;102.85
75782;DHT22;64400;44.762;37.698;2023-04-03T15:57:33;11.19;103.16
75782;DHT22;64400;44.762;37.698;2023-04-03T16:00:01;11.19;103.21
75782;DHT22;64400;44.762;37.698;2023-04-03T16:02:33;11.22;103.28
75782;DHT22;64400;44.762;37.698;2023-04-03T16:05:02;11.18;103.66
75782;DHT22;64400;44.762;37.698;2023-04-03T16:07:30;11.15;103.78
75782;DHT22;64400;44.762;37.698;2023-04-03T16:09:58;11.18;103.76
75782;DHT22;64400;44.762;37.698;2023-04-03T16:12:26;11.17;103.88
75782;DHT22;64400;44.762;37.698;2023-04-03T16:14:54;11.19;103.92
75782;DHT22;64400;44.762;37.698;2023-04-03T16:17:22;11.20;103.69
75782;DHT22;64400;44.762;37.698;2023-04-03T16:19:50;11.23;103.66
75782;DHT22;64400;44.762;37.698;2023-04-03T16:22:18;11.27;103.44
75782;DHT22;64400;44.762;37.698;2023-04-03T16:24:46;11.30;103.18
75782;DHT22;64400;44.762;37.698;2023-04-03T16:27:14;11.32;103.01
75782;DHT22;64400;44.762;37.698;2023-04-03T16:29:42;11.29;103.07
75782;DHT22;64400;44.762;37.698;2023-04-03T16:32:10;11.30;103.10
75782;DHT22;64400;44.762;37.698;2023-04-03T16:34:38;11.30;103.18
75782;DHT22;64400;44.762;37.698;2023-04-03T16:37:09;11.29;103.26
75782;DHT22;64400;44.762;37.698;2023-04-03T16:39:36;11.31;103.24
75782;DHT22;64400;44.762;37.698;2023-04-03T16:42:04;11.37;103.05
75782;DHT22;64400;44.762;37.698;2023-04-03T16:44:32;11.38;102.92
75782;DHT22;64400;44.762;37.698;2023-04-03T16:47:00;11.40;102.73
75782;DHT22;64400;44.762;37.698;2023-04-03T16:49:29;11.38;102.76
75782;DHT22;64400;44.762;37.698;2023-04-03T16:52:02;11.40;102.80
75782;DHT22;64400;44.762;37.698;2023-04-03T16:54:31;11.41;102.63
75782;DHT22;64400;44.762;37.698;2023-04-03T16:56:59;11.46;102.44
75782;DHT22;64400;44.762;37.698;2023-04-03T16:59:27;11.51;102.10
75782;DHT22;64400;44.762;37.698;2023-04-03T17:01:55;11.52;101.93
75782;DHT22;64400;44.762;37.698;2023-04-03T17:04:23;11.54;101.72
75782;DHT22;64400;44.762;37.698;2023-04-03T17:06:51;11.54;101.63
75782;DHT22;64400;44.762;37.698;2023-04-03T17:09:19;11.57;101.64
75782;DHT22;64400;44.762;37.698;2023-04-03T17:11:48;11.56;101.60
75782;DHT22;64400;44.762;37.698;2023-04-03T17:14:16;11.56;101.51
75782;DHT22;64400;44.762;37.698;2023-04-03T17:16:50;11.58;101.54
75782;DHT22;64400;44.762;37.698;2023-04-03T17:19:18;11.59;101.48
75782;DHT22;64400;44.762;37.698;2023-04-03T17:21:54;11.60;101.44
75782;DHT22;64400;44.762;37.698;2023-04-03T17:39:08;11.62;101.01
75782;DHT22;64400;44.762;37.698;2023-04-03T20:23:29;11.40;102.11
75782;DHT22;64400;44.762;37.698;2023-04-03T20:25:59;11.41;102.12
75782;DHT22;64400;44.762;37.698;2023-04-03T20:28:38;11.45;101.93
75782;DHT22;64400;44.762;37.698;2023-04-03T20:31:06;11.43;101.99
75782;DHT22;64400;44.762;37.698;2023-04-03T20:33:36;11.42;101.94
75782;DHT22;64400;44.762;37.698;2023-04-03T20:36:04;11.36;102.02
75782;DHT22;64400;44.762;37.698;2023-04-03T20:38:32;11.29;102.52
75782;DHT22;64400;44.762;37.698;2023-04-03T20:41:00;11.28;102.47
75782;DHT22;64400;44.762;37.698;2023-04-03T20:43:28;11.24;102.41
75782;DHT22;64400;44.762;37.698;2023-04-03T20:46:01;11.25;102.53
75782;DHT22;64400;44.762;37.698;2023-04-03T20:48:29;11.26;102.43
75782;DHT22;64400;44.762;37.698;2023-04-03T20:50:58;11.27;102.28
75782;DHT22;64400;44.762;37.698;2023-04-03T20:53:26;11.29;102.14
75782;DHT22;64400;44.762;37.698;2023-04-03T20:55:56;11.31;101.95